Avoree Noel — WDH9480 — position and weather

sailwx.info

Track history (hours):
 
Tides and Currents Weather Stations Pressure Air Temp Water Temp Dewpoint Dewpoint Depression Visibility Wind Speed Wind Dir Waves Ship Positions

Avoree Noel

Owner: LA CARRIERS, LLC, Cut Off, LA. More information available from US FCC via Universal Licensing System and Coast Guard Vessel Documentation Center.

Last reported at 2017-Nov-15 08:20 UTC. Time now 2017-Nov-17 21:14 UTC.
Position N 31°57' W 091°12'.

Length 24 m; draft 3 m.

Type: Towing. MMSI: 367668520.

Date/timePositionNaut miles runAvg speedWind from/ knotsBaromVisibWave heightAir tempDewpointWater temp
2017-Nov-15 08:20N 31°57' W 091°12'6 7.5
2017-Nov-15 07:36N 31°60' W 091°06'2 8.0
2017-Nov-15 07:18N 32°01' W 091°04'3 7.6
2017-Nov-15 06:54N 32°04' W 091°04'3 8.4
2017-Nov-15 06:30N 32°07' W 091°07'4 7.0
2017-Nov-15 05:59N 32°07' W 091°02'4 7.6
2017-Nov-15 05:30N 32°10' W 091°00'4 8.6
2017-Nov-15 05:00N 32°15' W 090°59'4 8.3
2017-Nov-15 04:30N 32°18' W 090°56'3 6.2
2017-Nov-15 04:00N 32°21' W 090°55'4 8.2
2017-Nov-15 03:30N 32°21' W 090°60'4 8.0
2017-Nov-15 03:00N 32°25' W 091°00'4 8.3
2017-Nov-15 02:30N 32°27' W 091°05'4 7.8
2017-Nov-15 02:00N 32°31' W 091°07'4 8.0
2017-Nov-15 01:30N 32°35' W 091°07'5 8.3
2017-Nov-15 00:56N 32°39' W 091°09'  
Track history (hours):
 
Tides and Currents Weather Stations Pressure Air Temp Water Temp Dewpoint Dewpoint Depression Visibility Wind Speed Wind Dir Waves Ship Positions

Avoree Noel

Owner: LA CARRIERS, LLC, Cut Off, LA. More information available from US FCC via Universal Licensing System and Coast Guard Vessel Documentation Center.

Last reported at 2017-Nov-15 08:20 UTC. Time now 2017-Nov-17 21:14 UTC.
Position N 31°57' W 091°12'.

Length 24 m; draft 3 m.

Type: Towing. MMSI: 367668520.

Date/timePositionNaut miles runAvg speedWind from/ knotsBaromVisibWave heightAir tempDewpointWater temp
2017-Nov-15 08:20N 31°57' W 091°12'6 7.5
2017-Nov-15 07:36N 31°60' W 091°06'2 8.0
2017-Nov-15 07:18N 32°01' W 091°04'3 7.6
2017-Nov-15 06:54N 32°04' W 091°04'3 8.4
2017-Nov-15 06:30N 32°07' W 091°07'4 7.0
2017-Nov-15 05:59N 32°07' W 091°02'4 7.6
2017-Nov-15 05:30N 32°10' W 091°00'4 8.6
2017-Nov-15 05:00N 32°15' W 090°59'4 8.3
2017-Nov-15 04:30N 32°18' W 090°56'3 6.2
2017-Nov-15 04:00N 32°21' W 090°55'4 8.2
2017-Nov-15 03:30N 32°21' W 090°60'4 8.0
2017-Nov-15 03:00N 32°25' W 091°00'4 8.3
2017-Nov-15 02:30N 32°27' W 091°05'4 7.8
2017-Nov-15 02:00N 32°31' W 091°07'4 8.0
2017-Nov-15 01:30N 32°35' W 091°07'5 8.3
2017-Nov-15 00:56N 32°39' W 091°09'  

Dump ship's entire track history